Time;durP1;ratioP1;P1;durP2;ratioP2;P2;SDS_P1;SDS_P2;PMS_P1;PMS_P2;Temp;Humidity;BMP_temperature;BMP_pressure;BME280_temperature;BME280_humidity;BME280_pressure;Samples;Min_cycle;Max_cycle;Signal;HPM_P1;HPM_P2
2022/11/15 00:02:01;;;;;;;44.33;25.97;;;;;;;7.07;93.84;101057.63;1829734;77;25787;-78
2022/11/15 00:04:45;;;;;;;44.50;25.00;;;;;;;7.05;93.77;101050.77;1820806;77;25793;-79
2022/11/15 00:07:30;;;;;;;42.25;25.25;;;;;;;7.04;93.83;101047.26;1803444;78;25840;-79
2022/11/15 00:10:15;;;;;;;43.48;26.27;;;;;;;7.03;93.83;101042.09;1821586;77;25312;-79
2022/11/15 00:13:00;;;;;;;42.48;25.60;;;;;;;6.98;93.82;101036.73;1804488;78;27464;-79
2022/11/15 00:15:44;;;;;;;41.33;24.27;;;;;;;7.00;94.02;101040.56;1803611;78;25814;-79
2022/11/15 00:18:30;;;;;;;40.33;24.37;;;;;;;7.03;94.19;101039.43;1811969;77;25900;-80
2022/11/15 00:21:17;;;;;;;87.67;47.90;;;;;;;7.02;94.18;101034.59;1831215;77;26713;-80
2022/11/15 00:24:01;;;;;;;48.92;29.67;;;;;;;7.05;94.30;101028.97;1829593;77;25609;-79
2022/11/15 00:26:46;;;;;;;46.25;26.23;;;;;;;7.09;94.40;101033.48;1806022;78;27520;-79
2022/11/15 00:29:31;;;;;;;43.10;25.95;;;;;;;7.10;94.34;101035.17;1817267;78;26362;-78
2022/11/15 00:32:15;;;;;;;41.35;25.48;;;;;;;7.11;94.17;101035.50;1809234;78;25799;-79
2022/11/15 00:35:00;;;;;;;42.60;24.32;;;;;;;7.08;94.20;101033.97;1830764;77;25747;-78
2022/11/15 00:37:47;;;;;;;46.95;24.27;;;;;;;7.07;94.27;101026.14;1807027;77;25805;-78
2022/11/15 00:40:32;;;;;;;46.92;26.77;;;;;;;7.07;94.45;101021.66;1815996;77;27483;-78
2022/11/15 00:43:17;;;;;;;50.05;28.15;;;;;;;7.08;94.43;101021.98;1789059;78;25945;-78
2022/11/15 00:46:02;;;;;;;42.33;25.72;;;;;;;7.10;94.46;101021.33;1822383;77;25829;-79
2022/11/15 00:48:47;;;;;;;42.80;26.00;;;;;;;7.11;94.46;101028.84;1788499;79;26508;-80
2022/11/15 00:51:31;;;;;;;45.45;25.97;;;;;;;7.11;94.45;101022.17;1822630;77;25782;-79
2022/11/15 00:54:16;;;;;;;51.68;27.05;;;;;;;7.11;94.48;101015.52;1798819;78;28261;-79
2022/11/15 00:57:01;;;;;;;48.87;27.52;;;;;;;7.12;94.57;101018.02;1819885;77;25871;-79
2022/11/15 00:59:46;;;;;;;42.35;24.65;;;;;;;7.14;94.59;101013.41;1813516;77;25858;-79
2022/11/15 01:02:31;;;;;;;45.23;25.40;;;;;;;7.16;94.58;101007.42;1825200;77;25822;-79
2022/11/15 01:05:16;;;;;;;50.12;28.00;;;;;;;7.13;94.50;101007.72;1816927;78;25829;-79
2022/11/15 01:08:00;;;;;;;48.17;26.40;;;;;;;7.14;94.68;100996.09;1815006;76;28255;-80
2022/11/15 01:10:45;;;;;;;47.75;27.32;;;;;;;7.18;94.72;100995.27;1822432;76;25688;-81
2022/11/15 01:13:33;;;;;;;47.30;26.68;;;;;;;7.19;94.60;100996.44;1806771;76;25831;-79
2022/11/15 01:16:18;;;;;;;48.83;28.60;;;;;;;7.17;94.45;100991.77;1827733;76;26711;-80
2022/11/15 01:19:03;;;;;;;45.33;27.87;;;;;;;7.14;94.31;100980.10;1823101;77;25829;-80
2022/11/15 01:21:50;;;;;;;47.53;26.10;;;;;;;7.13;94.24;100974.42;1829150;76;27451;-79
2022/11/15 01:24:35;;;;;;;53.92;27.52;;;;;;;7.11;94.16;100971.56;1824986;76;25770;-79
2022/11/15 01:27:19;;;;;;;45.48;25.70;;;;;;;7.07;94.20;100975.53;1820387;77;25869;-80
2022/11/15 01:30:06;;;;;;;51.05;28.50;;;;;;;7.06;94.14;100984.53;1789795;78;26450;-81
2022/11/15 01:32:51;;;;;;;54.33;30.35;;;;;;;7.04;94.23;100975.34;1817926;78;25942;-80
2022/11/15 01:35:40;;;;;;;51.15;26.12;;;;;;;7.03;94.42;100968.36;1813922;77;27624;-79
2022/11/15 01:38:24;;;;;;;51.10;28.10;;;;;;;7.01;94.47;100967.68;1818421;77;25787;-79
2022/11/15 01:41:19;;;;;;;52.98;28.17;;;;;;;6.98;94.37;100967.48;1779988;79;25740;-80
2022/11/15 01:44:33;;;;;;;52.38;29.05;;;;;;;6.95;94.23;100965.13;1818058;78;26718;-79
2022/11/15 01:47:32;;;;;;;52.33;28.67;;;;;;;6.92;94.26;100961.94;1809765;77;25996;-80
2022/11/15 01:50:22;;;;;;;53.42;28.98;;;;;;;6.87;94.42;100960.23;1818885;77;27452;-79
2022/11/15 01:53:07;;;;;;;57.38;30.10;;;;;;;6.84;94.44;100945.39;1819678;77;25864;-79
2022/11/15 01:55:53;;;;;;;49.80;27.22;;;;;;;6.82;94.59;100939.38;1819705;77;26548;-80
2022/11/15 01:58:40;;;;;;;51.95;29.02;;;;;;;6.83;94.72;100942.41;1818098;77;25969;-80
2022/11/15 02:01:26;;;;;;;54.13;30.75;;;;;;;6.81;94.63;100934.22;1822180;77;25826;-79
2022/11/15 02:04:25;;;;;;;49.95;28.98;;;;;;;6.76;94.60;100934.68;1787939;78;27703;-79
2022/11/15 02:07:15;;;;;;;51.23;28.55;;;;;;;6.74;94.70;100927.83;1792942;78;26477;-79
2022/11/15 02:10:07;;;;;;;55.98;28.70;;;;;;;6.77;95.04;100920.88;1828113;76;25857;-79
2022/11/15 02:12:54;;;;;;;57.95;30.55;;;;;;;6.80;95.15;100916.59;1808472;76;26593;-79
2022/11/15 02:16:01;;;;;;;53.05;29.48;;;;;;;6.80;95.09;100911.27;1829659;76;26408;-78
2022/11/15 02:18:57;;;;;;;50.80;28.20;;;;;;;6.79;95.02;100915.75;1822175;77;27449;-80
2022/11/15 02:22:16;;;;;;;55.90;30.12;;;;;;;6.79;95.05;100909.58;1812069;78;25947;-79
2022/11/15 02:25:49;;;;;;;53.98;29.10;;;;;;;6.75;95.06;100911.73;1785850;78;25759;-80
2022/11/15 02:28:49;;;;;;;52.85;29.30;;;;;;;6.76;95.14;100903.22;1805400;78;26560;-80
2022/11/15 02:32:06;;;;;;;54.05;29.67;;;;;;;6.73;95.15;100895.56;1795865;78;25845;-80
2022/11/15 02:35:08;;;;;;;53.52;28.25;;;;;;;6.70;95.16;100902.03;1814160;78;27432;-79
2022/11/15 02:38:18;;;;;;;61.75;31.07;;;;;;;6.69;95.36;100898.20;1796394;78;25731;-80
2022/11/15 02:41:08;;;;;;;55.85;28.85;;;;;;;6.71;95.49;100898.88;1814295;77;25791;-80
2022/11/15 02:44:16;;;;;;;50.20;27.27;;;;;;;6.72;95.42;100896.53;1812875;77;26415;-80
2022/11/15 02:47:13;;;;;;;51.98;28.38;;;;;;;6.71;95.40;100889.56;1807958;77;25905;-80
2022/11/15 02:50:04;;;;;;;50.08;27.77;;;;;;;6.69;95.34;100888.36;1807205;77;28999;-79
2022/11/15 02:52:49;;;;;;;57.30;29.75;;;;;;;6.71;95.52;100886.90;1819100;77;25840;-79
2022/11/15 02:55:38;;;;;;;57.80;30.57;;;;;;;6.71;95.55;100889.07;1814762;77;25760;-79
2022/11/15 02:59:01;;;;;;;55.83;29.85;;;;;;;6.74;95.62;100882.58;1786072;78;26523;-80
2022/11/15 03:01:58;;;;;;;50.80;28.80;;;;;;;6.75;95.60;100870.95;1817606;77;26477;-79
2022/11/15 03:05:20;;;;;;;52.90;27.85;;;;;;;6.75;95.53;100869.62;1822488;77;28730;-80
2022/11/15 03:08:13;;;;;;;53.00;27.75;;;;;;;6.73;95.40;100872.45;1819571;77;25890;-79
2022/11/15 03:11:19;;;;;;;57.95;29.90;;;;;;;6.71;95.43;100861.13;1832963;77;25735;-79
2022/11/15 03:14:27;;;;;;;57.67;29.87;;;;;;;6.70;95.43;100863.91;1776908;79;25916;-79
2022/11/15 03:17:23;;;;;;;61.85;31.82;;;;;;;6.67;95.46;100869.57;1797069;78;25973;-80
2022/11/15 03:20:10;;;;;;;61.60;31.77;;;;;;;6.67;95.57;100866.39;1819794;76;27480;-80
2022/11/15 03:22:59;;;;;;;67.37;34.33;;;;;;;6.68;95.61;100859.25;1796477;78;26091;-79
2022/11/15 03:25:48;;;;;;;60.63;31.35;;;;;;;6.66;95.59;100858.08;1800576;78;25758;-80
2022/11/15 03:28:48;;;;;;;63.87;32.90;;;;;;;6.65;95.67;100850.26;1814057;77;25780;-80
2022/11/15 03:31:49;;;;;;;64.27;31.52;;;;;;;6.65;95.70;100848.41;1818246;77;25697;-80
2022/11/15 03:34:40;;;;;;;;;;;;;;;6.62;95.53;100846.08;1789216;78;27448;-80
2022/11/15 03:37:28;;;;;;;;;;;;;;;6.60;95.68;100841.89;1830827;76;25963;-79
2022/11/15 03:40:16;;;;;;;68.87;33.00;;;;;;;6.58;95.76;100839.88;1825567;77;25786;-79
2022/11/15 03:43:26;;;;;;;65.62;32.08;;;;;;;6.54;95.86;100847.35;1791182;78;25777;-79
2022/11/15 03:46:16;;;;;;;63.25;32.60;;;;;;;6.55;95.98;100843.69;1797001;78;26435;-80
2022/11/15 03:49:12;;;;;;;64.60;31.05;;;;;;;6.56;96.03;100835.22;1810552;77;28262;-80
2022/11/15 03:51:59;;;;;;;67.78;32.35;;;;;;;6.58;95.96;100834.56;1812734;77;26148;-80
2022/11/15 03:54:55;;;;;;;72.65;34.53;;;;;;;6.57;96.06;100829.72;1825333;76;25804;-79
2022/11/15 03:57:40;;;;;;;66.10;31.85;;;;;;;6.59;96.13;100822.42;1824284;77;26612;-79
2022/11/15 04:00:24;;;;;;;66.00;31.52;;;;;;;6.61;95.98;100819.59;1815871;76;26371;-80
2022/11/15 04:03:09;;;;;;;65.67;30.57;;;;;;;6.61;95.99;100812.45;1821377;77;28271;-79
2022/11/15 04:05:54;;;;;;;64.62;30.85;;;;;;;6.65;96.13;100815.66;1820936;76;26081;-79
2022/11/15 04:08:38;;;;;;;61.80;31.12;;;;;;;6.65;95.98;100807.15;1834333;76;26531;-80
2022/11/15 04:11:23;;;;;;;59.85;28.35;;;;;;;6.63;95.91;100806.47;1823210;77;25956;-79
2022/11/15 04:14:08;;;;;;;58.50;29.37;;;;;;;6.63;95.88;100804.33;1823506;76;25545;-79
2022/11/15 04:16:53;;;;;;;58.65;28.92;;;;;;;6.62;95.75;100815.47;1823608;76;28456;-79
2022/11/15 04:25:47;;;;;;;56.92;28.85;;;;;;;6.48;95.36;100806.70;1785220;78;26522;-79
2022/11/15 04:28:32;;;;;;;53.75;28.67;;;;;;;6.43;95.53;100808.16;1829689;77;25783;-80
2022/11/15 04:31:16;;;;;;;54.15;27.10;;;;;;;6.43;95.76;100809.01;1817134;78;27487;-80
2022/11/15 04:34:01;;;;;;;56.45;30.32;;;;;;;6.42;95.74;100807.33;1826513;77;26387;-80
2022/11/15 04:39:49;;;;;;;54.48;27.15;;;;;;;6.43;96.04;100792.20;1821412;77;26172;-80
2022/11/15 04:42:34;;;;;;;57.60;28.65;;;;;;;6.46;96.05;100789.25;1833039;76;25316;-80
2022/11/15 04:45:19;;;;;;;50.75;25.68;;;;;;;6.45;96.11;100783.08;1821125;78;27643;-80
2022/11/15 04:48:04;;;;;;;56.40;27.75;;;;;;;6.46;96.11;100785.25;1818076;76;25851;-80
2022/11/15 04:50:49;;;;;;;57.58;27.32;;;;;;;6.48;96.13;100787.27;1780092;78;25746;-80
2022/11/15 04:53:34;;;;;;;58.10;28.30;;;;;;;6.49;96.25;100778.27;1826238;76;26172;-80
2022/11/15 04:56:19;;;;;;;50.52;25.62;;;;;;;6.51;96.16;100779.79;1781626;78;25919;-80
2022/11/15 04:59:04;;;;;;;56.42;27.45;;;;;;;6.51;96.12;100770.96;1818719;77;28208;-80
2022/11/15 05:01:48;;;;;;;57.53;29.02;;;;;;;6.51;96.10;100772.30;1810054;78;26329;-80
2022/11/15 05:04:33;;;;;;;60.83;28.52;;;;;;;6.49;96.05;100773.79;1819239;77;25707;-80
2022/11/15 05:07:18;;;;;;;64.03;30.17;;;;;;;6.51;96.13;100774.95;1820713;77;25996;-80
2022/11/15 05:10:03;;;;;;;64.53;28.52;;;;;;;6.50;96.14;100779.44;1821776;77;25432;-80
2022/11/15 05:12:47;;;;;;;60.78;28.95;;;;;;;6.49;96.10;100773.79;1824839;77;27424;-80
2022/11/15 05:15:32;;;;;;;55.85;26.73;;;;;;;6.49;96.16;100770.28;1807347;78;26139;-80
2022/11/15 05:18:17;;;;;;;58.55;28.27;;;;;;;6.48;96.22;100762.79;1816626;76;26399;-80
2022/11/15 05:21:07;;;;;;;61.08;28.83;;;;;;;6.49;96.29;100763.63;1818342;77;26542;-80
2022/11/15 05:23:52;;;;;;;55.83;25.97;;;;;;;6.48;96.27;100762.79;1816994;77;25842;-80
2022/11/15 05:26:37;;;;;;;66.25;29.67;;;;;;;6.49;96.35;100760.97;1822858;76;28238;-80
2022/11/15 05:29:22;;;;;;;65.50;30.50;;;;;;;6.45;96.37;100763.13;1823946;76;25831;-80
2022/11/15 05:32:10;;;;;;;65.05;28.98;;;;;;;6.48;96.54;100765.45;1815500;77;25821;-80
2022/11/15 05:34:55;;;;;;;69.37;30.52;;;;;;;6.48;96.53;100755.33;1808384;77;26558;-80
2022/11/15 05:37:40;;;;;;;61.50;28.85;;;;;;;6.49;96.50;100756.49;1824622;77;25792;-80
2022/11/15 05:40:27;;;;;;;68.72;29.77;;;;;;;6.49;96.58;100763.14;1823823;77;27623;-80
2022/11/15 05:43:12;;;;;;;60.90;28.52;;;;;;;6.48;96.56;100753.48;1807717;78;26573;-80
2022/11/15 05:45:59;;;;;;;66.62;31.75;;;;;;;6.48;96.63;100765.97;1819922;76;26096;-79
2022/11/15 05:48:48;;;;;;;65.37;30.68;;;;;;;6.51;96.72;100758.98;1809572;76;26777;-79
2022/11/15 05:51:33;;;;;;;70.42;32.08;;;;;;;6.51;96.79;100762.49;1811904;77;25869;-79
2022/11/15 05:54:19;;;;;;;61.37;29.12;;;;;;;6.54;96.86;100749.37;1817176;78;27465;-80
2022/11/15 05:57:05;;;;;;;68.10;30.55;;;;;;;6.58;96.93;100738.75;1802283;77;26358;-80
2022/11/15 05:59:50;;;;;;;68.92;31.48;;;;;;;6.58;96.75;100742.74;1812820;77;25299;-80
2022/11/15 06:02:35;;;;;;;71.53;31.95;;;;;;;6.58;96.71;100736.93;1809751;77;25791;-80
2022/11/15 06:05:19;;;;;;;68.02;31.00;;;;;;;6.56;96.75;100741.58;1819309;77;26325;-79
2022/11/15 06:08:04;;;;;;;66.12;30.68;;;;;;;6.56;96.74;100748.72;1829486;77;28268;-80
2022/11/15 06:10:49;;;;;;;65.30;29.72;;;;;;;6.57;96.76;100745.89;1822339;77;25799;-79
2022/11/15 06:13:34;;;;;;;68.97;32.40;;;;;;;6.57;96.77;100745.89;1808485;77;25778;-80
2022/11/15 06:16:19;;;;;;;67.97;31.05;;;;;;;6.59;96.78;100745.23;1811645;77;26576;-79
2022/11/15 06:19:07;;;;;;;77.75;32.30;;;;;;;6.59;96.84;100747.90;1804509;77;25486;-80
2022/11/15 06:21:51;;;;;;;73.50;33.15;;;;;;;6.61;96.88;100745.91;1826608;77;27458;-79
2022/11/15 06:24:36;;;;;;;61.02;28.98;;;;;;;6.63;96.94;100748.44;1814558;78;26404;-79
2022/11/15 06:27:20;;;;;;;65.10;31.82;;;;;;;6.66;96.97;100745.44;1791088;78;25837;-80
2022/11/15 06:30:06;;;;;;;58.45;28.67;;;;;;;6.65;96.87;100749.92;1817912;76;25796;-79
2022/11/15 06:33:04;;;;;;;53.95;25.27;;;;;;;6.63;96.71;100745.78;1826921;76;26483;-80
2022/11/15 06:35:49;;;;;;;52.33;24.75;;;;;;;6.59;96.52;100753.70;1818770;78;27402;-79
2022/11/15 06:38:34;;;;;;;51.33;23.25;;;;;;;6.54;96.38;100757.36;1813545;76;25866;-79
2022/11/15 06:41:20;;;;;;;54.25;24.63;;;;;;;6.50;96.49;100762.66;1788272;78;25516;-79
2022/11/15 06:44:05;;;;;;;58.80;25.37;;;;;;;6.48;96.62;100763.31;1819105;77;26689;-79
2022/11/15 06:46:50;;;;;;;56.68;25.02;;;;;;;6.48;96.72;100761.46;1817460;78;25274;-79
2022/11/15 06:49:34;;;;;;;62.62;29.07;;;;;;;6.45;96.67;100758.29;1819633;77;27615;-79
2022/11/15 06:52:19;;;;;;;53.15;25.95;;;;;;;6.45;96.92;100755.14;1790546;78;26448;-79
2022/11/15 06:55:05;;;;;;;48.42;24.92;;;;;;;6.45;96.90;100753.81;1794652;78;26006;-79
2022/11/15 06:57:52;;;;;;;54.45;25.40;;;;;;;6.44;96.91;100753.95;1832594;77;25774;-79
2022/11/15 07:00:37;;;;;;;51.02;24.52;;;;;;;6.41;96.87;100755.61;1791954;78;25870;-80
2022/11/15 07:03:22;;;;;;;53.30;24.40;;;;;;;6.44;97.08;100757.94;1808701;77;28846;-80
2022/11/15 07:06:09;;;;;;;55.38;26.02;;;;;;;6.43;97.04;100765.11;1818134;76;26395;-79
2022/11/15 07:08:55;;;;;;;54.40;24.45;;;;;;;6.43;97.08;100758.45;1782266;78;25756;-79
2022/11/15 07:11:40;;;;;;;51.68;24.23;;;;;;;6.46;97.19;100763.45;1814810;78;25907;-79
2022/11/15 07:14:25;;;;;;;56.77;25.70;;;;;;;6.46;97.03;100760.78;1827577;77;26214;-80
2022/11/15 07:17:10;;;;;;;53.78;25.70;;;;;;;6.45;97.06;100761.80;1826226;76;28246;-80
2022/11/15 07:19:54;;;;;;;58.15;24.70;;;;;;;6.46;97.21;100761.30;1823739;76;25771;-80
2022/11/15 07:22:45;;;;;;;55.48;26.30;;;;;;;6.47;97.15;100759.81;1793186;78;26515;-80
2022/11/15 07:25:29;;;;;;;55.30;27.17;;;;;;;6.46;97.27;100759.97;1815218;77;25781;-79
2022/11/15 07:28:14;;;;;;;58.33;26.23;;;;;;;6.51;97.47;100758.98;1784171;78;25776;-80
2022/11/15 07:31:05;;;;;;;53.60;26.60;;;;;;;6.53;97.53;100764.50;1818217;76;27537;-80
2022/11/15 07:33:50;;;;;;;59.08;28.70;;;;;;;6.55;97.54;100762.52;1830732;76;26553;-79
2022/11/15 07:36:35;;;;;;;56.25;25.62;;;;;;;6.58;97.58;100762.70;1819061;77;25742;-80
2022/11/15 07:39:19;;;;;;;61.85;27.87;;;;;;;6.60;97.51;100756.23;1816366;77;25730;-80
2022/11/15 07:45:09;;;;;;;80.05;41.48;;;;;;;6.62;97.43;100752.08;1838577;77;28236;-80
2022/11/15 07:47:55;;;;;;;91.25;49.65;;;;;;;6.62;97.49;100751.59;1793489;78;25805;-80
2022/11/15 07:50:43;;;;;;;80.25;41.30;;;;;;;6.63;97.42;100752.43;1817038;78;25313;-80
2022/11/15 07:53:28;;;;;;;74.32;39.15;;;;;;;6.65;97.45;100753.92;1822502;76;25777;-80
2022/11/15 07:56:13;;;;;;;69.25;37.03;;;;;;;6.68;97.54;100751.44;1822692;76;26083;-80
2022/11/15 07:58:59;;;;;;;68.60;33.28;;;;;;;6.70;97.51;100743.64;1793024;79;27441;-79
2022/11/15 08:01:43;;;;;;;63.60;31.93;;;;;;;6.72;97.59;100746.14;1823891;77;26459;-80
2022/11/15 08:04:28;;;;;;;66.37;31.90;;;;;;;6.76;97.81;100743.49;1807328;77;25750;-80
2022/11/15 08:07:13;;;;;;;84.30;38.08;;;;;;;6.79;97.65;100734.71;1815517;77;25810;-80
2022/11/15 08:10:00;;;;;;;115.40;50.65;;;;;;;6.79;97.49;100732.54;1826165;77;25451;-79
2022/11/15 08:12:45;;;;;;;77.82;37.80;;;;;;;6.77;97.31;100726.54;1821439;77;27605;-80
2022/11/15 08:15:31;;;;;;;72.78;35.55;;;;;;;6.77;97.38;100722.05;1790005;78;25795;-80
2022/11/15 08:18:16;;;;;;;74.20;37.83;;;;;;;6.77;97.48;100719.39;1785733;78;25602;-80
2022/11/15 08:21:01;;;;;;;72.03;31.17;;;;;;;6.80;97.52;100710.27;1829204;77;26177;-80
2022/11/15 08:23:47;;;;;;;63.28;30.60;;;;;;;6.76;97.30;100708.39;1832230;76;25780;-81
2022/11/15 08:26:31;;;;;;;57.40;28.83;;;;;;;6.79;97.41;100707.25;1835244;76;27452;-80
2022/11/15 08:29:16;;;;;;;56.75;31.27;;;;;;;6.79;97.37;100696.11;1826023;76;25259;-80
2022/11/15 08:32:01;;;;;;;86.37;39.27;;;;;;;6.74;97.01;100705.06;1821736;76;26382;-80
2022/11/15 08:34:46;;;;;;;64.82;31.07;;;;;;;6.73;97.22;100707.41;1838864;76;26513;-80
2022/11/15 08:37:30;;;;;;;77.08;36.68;;;;;;;6.72;97.08;100693.73;1826062;77;25710;-80
2022/11/15 08:40:16;;;;;;;81.87;44.38;;;;;;;6.72;97.34;100701.73;1788895;78;27387;-80
2022/11/15 08:43:02;;;;;;;84.37;48.70;;;;;;;6.73;97.52;100694.58;1814068;77;26553;-80
2022/11/15 08:45:47;;;;;;;62.88;32.95;;;;;;;6.75;97.54;100693.44;1812646;76;25826;-80
2022/11/15 08:48:32;;;;;;;61.33;31.82;;;;;;;6.76;97.44;100693.75;1794352;78;26616;-80
2022/11/15 08:51:16;;;;;;;56.90;30.95;;;;;;;6.78;97.55;100690.43;1824232;77;25812;-79
2022/11/15 08:54:01;;;;;;;61.88;31.65;;;;;;;6.81;97.65;100693.27;1812845;77;27528;-80
2022/11/15 08:56:45;;;;;;;63.55;32.42;;;;;;;6.85;97.78;100695.46;1827385;76;25820;-80
2022/11/15 08:59:30;;;;;;;56.60;27.60;;;;;;;6.88;97.77;100691.16;1792041;78;25773;-80
2022/11/15 09:02:15;;;;;;;55.25;29.40;;;;;;;6.90;97.80;100691.83;1784524;78;25951;-79
2022/11/15 09:05:00;;;;;;;59.03;28.83;;;;;;;6.92;97.76;100689.84;1776377;78;25810;-80
2022/11/15 09:07:44;;;;;;;62.20;30.45;;;;;;;6.93;97.66;100691.98;1820007;76;27450;-79
2022/11/15 09:10:29;;;;;;;53.08;25.02;;;;;;;6.94;97.82;100689.67;1792159;78;26428;-80
2022/11/15 09:13:14;;;;;;;63.95;34.75;;;;;;;6.89;97.13;100691.48;1819391;77;25676;-81
2022/11/15 09:16:00;;;;;;;60.92;31.70;;;;;;;6.86;97.36;100692.31;1819736;76;25837;-80
2022/11/15 09:18:45;;;;;;;60.75;31.12;;;;;;;6.90;97.75;100686.99;1818760;76;25942;-80
2022/11/15 09:21:30;;;;;;;57.50;27.77;;;;;;;6.94;97.83;100683.85;1818501;76;27596;-80
2022/11/15 09:24:14;;;;;;;55.67;27.55;;;;;;;6.98;97.83;100683.86;1814225;76;26109;-80
2022/11/15 09:26:59;;;;;;;63.52;31.45;;;;;;;7.01;97.84;100677.39;1808739;77;25730;-79
2022/11/15 09:29:44;;;;;;;59.38;29.70;;;;;;;7.03;97.79;100670.06;1812091;78;26034;-80
2022/11/15 09:32:30;;;;;;;63.92;30.27;;;;;;;7.07;97.88;100670.56;1824462;77;26086;-80
2022/11/15 09:35:15;;;;;;;62.98;31.75;;;;;;;7.09;97.88;100669.41;1816451;76;27373;-81
2022/11/15 09:38:00;;;;;;;64.60;31.33;;;;;;;7.07;97.67;100659.42;1815515;76;25755;-81
2022/11/15 09:40:49;;;;;;;64.60;30.20;;;;;;;7.09;97.58;100665.42;1821042;76;25855;-81
2022/11/15 09:44:07;;;;;;;59.53;29.20;;;;;;;7.10;97.56;100664.92;1816937;76;25825;-81
2022/11/15 09:47:35;;;;;;;67.58;35.17;;;;;;;7.09;97.53;100661.91;1815414;76;25854;-81
2022/11/15 09:50:14;;;;;;;67.87;34.75;;;;;;;7.13;97.90;100648.59;1820911;76;27460;-80
2022/11/15 09:52:44;;;;;;;64.32;31.65;;;;;;;7.12;97.49;100643.77;1819931;77;25736;-81
2022/11/15 09:55:21;;;;;;;59.10;29.83;;;;;;;7.12;97.50;100645.62;1786161;78;25758;-81
2022/11/15 09:57:56;;;;;;;67.22;35.35;;;;;;;7.14;97.57;100649.80;1779713;79;26486;-81
2022/11/15 10:00:34;;;;;;;60.70;29.52;;;;;;;7.16;97.64;100638.47;1831391;76;26111;-81
2022/11/15 10:03:27;;;;;;;93.35;53.63;;;;;;;7.14;97.49;100627.15;1819422;76;28232;-80
2022/11/15 10:05:59;;;;;;;66.90;32.88;;;;;;;7.16;97.76;100621.65;1826412;76;25782;-81
2022/11/15 10:08:48;;;;;;;65.15;32.50;;;;;;;7.19;97.69;100618.64;1806241;78;25932;-80
2022/11/15 10:11:25;;;;;;;76.97;40.65;;;;;;;7.19;97.71;100612.81;1816796;77;25793;-79
2022/11/15 10:13:56;;;;;;;72.35;40.10;;;;;;;7.25;97.88;100602.83;1817104;77;26107;-80
2022/11/15 10:17:03;;;;;;;70.28;37.85;;;;;;;7.30;98.05;100604.51;1819711;78;27455;-79
2022/11/15 10:20:01;;;;;;;61.42;32.03;;;;;;;7.36;98.01;100606.50;1815009;77;25996;-79
2022/11/15 10:22:32;;;;;;;60.33;28.67;;;;;;;7.41;97.91;100615.34;1825930;76;25888;-80
2022/11/15 10:25:04;;;;;;;57.25;29.72;;;;;;;7.43;97.78;100614.18;1791805;78;25751;-79
2022/11/15 10:27:31;;;;;;;58.70;29.87;;;;;;;7.45;97.79;100609.52;1791461;78;25773;-79
2022/11/15 10:29:57;;;;;;;62.27;32.00;;;;;;;7.45;97.47;100614.00;1817500;77;27432;-79
2022/11/15 10:32:23;;;;;;;65.80;33.40;;;;;;;7.44;97.28;100613.16;1802559;78;25917;-79
2022/11/15 10:34:50;;;;;;;67.82;35.08;;;;;;;7.44;97.64;100610.50;1818008;77;26327;-79
2022/11/15 10:37:32;;;;;;;60.10;32.23;;;;;;;7.49;97.66;100616.66;1807391;78;25823;-79
2022/11/15 10:40:16;;;;;;;68.85;35.13;;;;;;;7.52;97.52;100614.52;1810012;77;26463;-80
2022/11/15 10:42:42;;;;;;;65.28;32.50;;;;;;;7.55;97.51;100608.00;1816155;78;28238;-79
2022/11/15 10:45:25;;;;;;;62.65;32.53;;;;;;;7.60;97.47;100611.01;1799745;78;25894;-79
2022/11/15 10:47:51;;;;;;;70.83;33.42;;;;;;;7.62;97.37;100605.84;1834983;76;26484;-80
2022/11/15 10:50:31;;;;;;;60.43;32.75;;;;;;;7.65;97.36;100610.86;1792848;78;25778;-80
2022/11/15 10:53:00;;;;;;;64.45;34.67;;;;;;;7.65;97.09;100602.86;1814984;76;25908;-79
2022/11/15 10:55:30;;;;;;;64.95;32.50;;;;;;;7.67;97.18;100597.34;1828234;76;27514;-80
2022/11/15 10:58:30;;;;;;;73.97;34.60;;;;;;;7.68;97.09;100595.00;1824349;76;25802;-79
2022/11/15 11:01:22;;;;;;;68.72;33.18;;;;;;;7.71;97.29;100597.34;1847442;76;25861;-79
2022/11/15 11:04:07;;;;;;;66.47;33.90;;;;;;;7.76;97.33;100591.02;1828639;76;25996;-80
2022/11/15 11:06:58;;;;;;;66.40;33.42;;;;;;;7.77;97.30;100589.50;1776810;77;25801;-79
2022/11/15 11:09:38;;;;;;;64.65;33.15;;;;;;;7.79;97.10;100588.83;1815390;77;27365;-79
2022/11/15 11:12:09;;;;;;;65.55;33.42;;;;;;;7.81;97.10;100583.32;1827006;77;26102;-80
2022/11/15 11:14:38;;;;;;;64.32;33.40;;;;;;;7.85;97.01;100575.84;1822185;77;25614;-80
2022/11/15 11:17:22;;;;;;;66.47;35.58;;;;;;;7.85;96.79;100580.64;1828510;77;26593;-79
2022/11/15 11:20:33;;;;;;;57.30;30.80;;;;;;;7.85;96.66;100581.17;1815337;77;25487;-79
2022/11/15 11:23:39;;;;;;;60.92;32.90;;;;;;;7.83;96.73;100573.31;1826520;77;27465;-80
2022/11/15 11:26:28;;;;;;;68.42;33.78;;;;;;;7.83;96.48;100565.84;1820804;77;25830;-80
2022/11/15 11:29:17;;;;;;;71.30;36.73;;;;;;;7.80;96.50;100565.15;1815101;78;26405;-80
2022/11/15 11:31:55;;;;;;;71.10;35.38;;;;;;;7.83;96.77;100563.98;1816597;77;26696;-80
2022/11/15 11:35:04;;;;;;;67.92;35.78;;;;;;;7.87;96.80;100566.64;1807937;77;26388;-80
2022/11/15 11:37:45;;;;;;;68.20;36.00;;;;;;;7.87;96.54;100563.16;1810823;77;27428;-80
2022/11/15 11:40:51;;;;;;;64.55;34.00;;;;;;;7.89;96.79;100555.82;1778526;79;26483;-80
2022/11/15 11:43:40;;;;;;;70.60;33.55;;;;;;;7.92;96.90;100554.97;1814877;77;26119;-80
2022/11/15 11:46:47;;;;;;;73.47;36.38;;;;;;;7.94;96.56;100548.96;1811953;77;25778;-80
2022/11/15 11:49:34;;;;;;;69.32;34.43;;;;;;;7.95;96.33;100552.47;1809142;77;26430;-80
2022/11/15 11:52:12;;;;;;;61.45;33.53;;;;;;;7.97;96.38;100543.79;1805768;78;27715;-80
2022/11/15 11:54:47;;;;;;;64.30;33.67;;;;;;;7.95;96.06;100540.47;1775361;78;25786;-80
2022/11/15 11:57:19;;;;;;;62.13;34.10;;;;;;;7.94;95.94;100532.95;1783213;78;25581;-80
2022/11/15 11:59:53;;;;;;;66.97;34.85;;;;;;;7.94;95.85;100528.12;1820260;77;26546;-80
2022/11/15 12:02:37;;;;;;;73.22;38.17;;;;;;;7.92;95.74;100527.45;1825050;77;25858;-80
2022/11/15 12:05:36;;;;;;;64.30;35.33;;;;;;;7.94;96.05;100527.63;1817757;77;27410;-80
2022/11/15 12:08:08;;;;;;;67.15;33.18;;;;;;;7.93;95.68;100522.47;1826130;77;26402;-79
2022/11/15 12:10:35;;;;;;;64.42;35.43;;;;;;;7.94;95.62;100521.45;1812059;77;25950;-80
2022/11/15 12:13:13;;;;;;;65.45;35.13;;;;;;;7.89;95.46;100518.48;1825645;77;26477;-79
2022/11/15 12:16:17;;;;;;;70.50;36.20;;;;;;;7.91;95.68;100519.14;1813977;78;26373;-79
2022/11/15 12:18:51;;;;;;;67.62;36.13;;;;;;;7.94;95.87;100519.63;1821887;77;27565;-80
2022/11/15 12:21:44;;;;;;;67.00;35.10;;;;;;;7.96;95.89;100516.28;1815370;78;25897;-80
2022/11/15 12:24:28;;;;;;;73.25;38.65;;;;;;;7.99;95.66;100517.28;1813989;78;25850;-80
2022/11/15 12:27:03;;;;;;;70.80;38.20;;;;;;;8.00;95.75;100518.93;1791720;78;26454;-80
2022/11/15 12:29:49;;;;;;;74.12;38.90;;;;;;;8.01;95.76;100515.77;1811939;78;25294;-80
2022/11/15 12:32:29;;;;;;;68.62;36.03;;;;;;;8.05;95.94;100505.08;1830643;77;28354;-80
2022/11/15 12:34:58;;;;;;;66.10;36.27;;;;;;;8.08;95.86;100501.58;1798605;78;26380;-80
2022/11/15 12:37:45;;;;;;;65.80;35.98;;;;;;;8.11;95.79;100509.72;1788606;78;25803;-80
2022/11/15 12:40:30;;;;;;;65.05;35.13;;;;;;;8.10;95.49;100502.73;1809086;78;26483;-80
2022/11/15 12:43:02;;;;;;;64.30;33.83;;;;;;;8.09;95.40;100495.23;1800091;78;26432;-80
2022/11/15 12:45:43;;;;;;;78.83;41.15;;;;;;;8.08;95.34;100489.58;1819087;76;28365;-80
2022/11/15 12:48:27;;;;;;;95.28;47.88;;;;;;;8.11;95.46;100487.05;1808618;77;25825;-80
2022/11/15 12:50:58;;;;;;;83.75;42.35;;;;;;;8.10;95.30;100482.23;1818376;76;25853;-80
2022/11/15 12:53:32;;;;;;;66.00;36.40;;;;;;;8.11;95.21;100485.70;1792908;78;26029;-80
2022/11/15 12:56:16;;;;;;;66.20;35.92;;;;;;;8.13;95.27;100491.20;1792520;78;26389;-80
2022/11/15 12:58:58;;;;;;;69.35;35.38;;;;;;;8.13;95.01;100481.03;1820733;77;27439;-80